Terminal Aerodrome Forecast
Issued by NWS

Home | Current Version | Previous Version | Graphics & Text | Print | Product List | Glossary On
Versions: 1 2 3 4 5 6 7 8 9 10 11 12 13 14 15 16 17 18 19
255
FTUS43 KICT 211537 AAA
TAFRSL
TAF AMD
KRSL 211537Z 2116/2212 05010KT 5SM BR VCSH OVC006
      TEMPO 2116/2120 2SM -RA BR OVC005
     FM220200 36009KT P6SM OVC008=

USA.gov is the U.S. government's official web portal to all federal, state and local government web resources and services.